Papaaloa, Hawaii
Current Conditions -  °F | °C
As of 8:53 PM on Saturday 25 Oct 2014 (Local Time) from PHTO Reporting Station
Overcast Overcast  
Wind Chill: 74°   Ceiling: 3200
Heat Index: 74°   Visibility: 10mi
Dew Point: 72°   Wind: 6mph
Humidity: 93%   Direction: 220°SW
Pressure: 30.06"   Gusts: NA
Location:  19.97°N, 155.22°W
Report Text: PHTO 260653Z 22005KT 10SM BKN032 OVC043 23/22 A3006 RMK AO2 RAB06E21 SLP177 P0001 T02330222
Loading
Personal Weather Stations






























Interactive Weather Map
Tropical Storm Tracking
New forecast layout! Learn more

10-Day Weather Forecast

Advertisements
Track Severe Weather on mobile